sensor_id;sensor_type;location;lat;lon;timestamp;P1;durP1;ratioP1;P2;durP2;ratioP2
41446;SDS011;27185;52.040;4.490;2022-10-31T00:02:11;1.90;;;0.90;;
41446;SDS011;27185;52.040;4.490;2022-10-31T00:04:57;2.70;;;0.95;;
41446;SDS011;27185;52.040;4.490;2022-10-31T00:07:42;3.42;;;1.20;;
41446;SDS011;27185;52.040;4.490;2022-10-31T00:10:28;2.92;;;1.00;;
41446;SDS011;27185;52.040;4.490;2022-10-31T00:13:13;6.00;;;1.27;;
41446;SDS011;27185;52.040;4.490;2022-10-31T00:15:59;2.50;;;1.00;;
41446;SDS011;27185;52.040;4.490;2022-10-31T00:18:49;2.22;;;0.90;;
41446;SDS011;27185;52.040;4.490;2022-10-31T00:21:38;2.83;;;0.95;;
41446;SDS011;27185;52.040;4.490;2022-10-31T00:24:24;4.05;;;0.90;;
41446;SDS011;27185;52.040;4.490;2022-10-31T00:27:09;3.13;;;0.98;;
41446;SDS011;27185;52.040;4.490;2022-10-31T00:29:55;5.07;;;0.95;;
41446;SDS011;27185;52.040;4.490;2022-10-31T00:32:41;3.40;;;0.90;;
41446;SDS011;27185;52.040;4.490;2022-10-31T00:35:26;2.22;;;1.00;;
41446;SDS011;27185;52.040;4.490;2022-10-31T00:38:12;4.75;;;1.17;;
41446;SDS011;27185;52.040;4.490;2022-10-31T00:40:57;3.38;;;1.13;;
41446;SDS011;27185;52.040;4.490;2022-10-31T00:43:43;3.05;;;1.10;;
41446;SDS011;27185;52.040;4.490;2022-10-31T00:46:29;3.33;;;1.13;;
41446;SDS011;27185;52.040;4.490;2022-10-31T00:49:14;3.15;;;0.93;;
41446;SDS011;27185;52.040;4.490;2022-10-31T00:52:00;2.42;;;1.05;;
41446;SDS011;27185;52.040;4.490;2022-10-31T00:54:45;4.03;;;1.17;;
41446;SDS011;27185;52.040;4.490;2022-10-31T00:57:31;5.35;;;1.10;;
41446;SDS011;27185;52.040;4.490;2022-10-31T01:00:16;1.42;;;0.70;;
41446;SDS011;27185;52.040;4.490;2022-10-31T01:03:02;2.72;;;0.90;;
41446;SDS011;27185;52.040;4.490;2022-10-31T01:06:01;4.05;;;1.17;;
41446;SDS011;27185;52.040;4.490;2022-10-31T01:08:51;2.88;;;0.85;;
41446;SDS011;27185;52.040;4.490;2022-10-31T01:11:37;2.63;;;1.05;;
41446;SDS011;27185;52.040;4.490;2022-10-31T01:14:22;2.97;;;1.45;;
41446;SDS011;27185;52.040;4.490;2022-10-31T01:17:08;5.07;;;1.10;;
41446;SDS011;27185;52.040;4.490;2022-10-31T01:19:53;4.70;;;1.30;;
41446;SDS011;27185;52.040;4.490;2022-10-31T01:22:39;3.30;;;1.13;;
41446;SDS011;27185;52.040;4.490;2022-10-31T01:25:24;2.35;;;1.10;;
41446;SDS011;27185;52.040;4.490;2022-10-31T01:28:10;3.58;;;0.98;;
41446;SDS011;27185;52.040;4.490;2022-10-31T01:30:59;5.32;;;1.15;;
41446;SDS011;27185;52.040;4.490;2022-10-31T01:33:45;2.83;;;1.17;;
41446;SDS011;27185;52.040;4.490;2022-10-31T01:36:40;3.58;;;1.38;;
41446;SDS011;27185;52.040;4.490;2022-10-31T01:39:26;2.10;;;1.00;;
41446;SDS011;27185;52.040;4.490;2022-10-31T01:42:16;3.22;;;1.25;;
41446;SDS011;27185;52.040;4.490;2022-10-31T01:45:04;3.63;;;1.30;;
41446;SDS011;27185;52.040;4.490;2022-10-31T01:47:51;2.40;;;1.02;;
41446;SDS011;27185;52.040;4.490;2022-10-31T01:50:36;3.47;;;1.30;;
41446;SDS011;27185;52.040;4.490;2022-10-31T01:53:24;3.28;;;1.30;;
41446;SDS011;27185;52.040;4.490;2022-10-31T01:56:09;3.28;;;1.33;;
41446;SDS011;27185;52.040;4.490;2022-10-31T01:58:56;7.70;;;1.40;;
41446;SDS011;27185;52.040;4.490;2022-10-31T02:01:45;3.95;;;1.50;;
41446;SDS011;27185;52.040;4.490;2022-10-31T02:04:32;2.65;;;1.40;;
41446;SDS011;27185;52.040;4.490;2022-10-31T02:10:37;2.50;;;1.10;;
41446;SDS011;27185;52.040;4.490;2022-10-31T02:13:23;3.50;;;1.88;;
41446;SDS011;27185;52.040;4.490;2022-10-31T02:16:09;2.65;;;1.30;;
41446;SDS011;27185;52.040;4.490;2022-10-31T02:18:55;3.00;;;1.20;;
41446;SDS011;27185;52.040;4.490;2022-10-31T02:21:44;3.85;;;1.30;;
41446;SDS011;27185;52.040;4.490;2022-10-31T02:30:40;2.55;;;1.45;;
41446;SDS011;27185;52.040;4.490;2022-10-31T02:33:44;5.47;;;1.60;;
41446;SDS011;27185;52.040;4.490;2022-10-31T02:42:50;2.55;;;1.30;;
41446;SDS011;27185;52.040;4.490;2022-10-31T02:46:02;3.08;;;1.35;;
41446;SDS011;27185;52.040;4.490;2022-10-31T02:48:53;4.20;;;1.45;;
41446;SDS011;27185;52.040;4.490;2022-10-31T02:51:42;2.70;;;1.55;;
41446;SDS011;27185;52.040;4.490;2022-10-31T02:54:28;2.95;;;1.23;;
41446;SDS011;27185;52.040;4.490;2022-10-31T02:57:16;4.70;;;1.75;;
41446;SDS011;27185;52.040;4.490;2022-10-31T03:00:07;3.10;;;1.75;;
41446;SDS011;27185;52.040;4.490;2022-10-31T03:12:29;3.50;;;1.92;;
41446;SDS011;27185;52.040;4.490;2022-10-31T03:15:33;3.95;;;1.67;;
41446;SDS011;27185;52.040;4.490;2022-10-31T03:18:32;4.20;;;1.63;;
41446;SDS011;27185;52.040;4.490;2022-10-31T03:21:21;4.82;;;2.42;;
41446;SDS011;27185;52.040;4.490;2022-10-31T03:24:12;3.00;;;1.92;;
41446;SDS011;27185;52.040;4.490;2022-10-31T03:26:59;5.28;;;2.25;;
41446;SDS011;27185;52.040;4.490;2022-10-31T03:29:46;4.35;;;2.60;;
41446;SDS011;27185;52.040;4.490;2022-10-31T03:32:44;6.35;;;3.03;;
41446;SDS011;27185;52.040;4.490;2022-10-31T03:35:36;5.65;;;2.72;;
41446;SDS011;27185;52.040;4.490;2022-10-31T03:38:26;5.40;;;3.05;;
41446;SDS011;27185;52.040;4.490;2022-10-31T03:41:14;9.35;;;4.57;;
41446;SDS011;27185;52.040;4.490;2022-10-31T03:44:07;11.48;;;4.35;;
41446;SDS011;27185;52.040;4.490;2022-10-31T03:46:55;6.47;;;4.30;;
41446;SDS011;27185;52.040;4.490;2022-10-31T03:49:41;6.47;;;4.18;;
41446;SDS011;27185;52.040;4.490;2022-10-31T03:52:28;6.35;;;4.10;;
41446;SDS011;27185;52.040;4.490;2022-10-31T03:55:17;7.30;;;5.13;;
41446;SDS011;27185;52.040;4.490;2022-10-31T03:58:12;7.20;;;5.13;;
41446;SDS011;27185;52.040;4.490;2022-10-31T04:01:11;7.95;;;5.25;;
41446;SDS011;27185;52.040;4.490;2022-10-31T04:04:00;8.55;;;5.53;;
41446;SDS011;27185;52.040;4.490;2022-10-31T04:06:46;11.57;;;6.20;;
41446;SDS011;27185;52.040;4.490;2022-10-31T04:09:35;8.63;;;6.32;;
41446;SDS011;27185;52.040;4.490;2022-10-31T04:12:23;9.75;;;6.65;;
41446;SDS011;27185;52.040;4.490;2022-10-31T04:15:10;10.50;;;5.80;;
41446;SDS011;27185;52.040;4.490;2022-10-31T04:17:57;10.00;;;6.28;;
41446;SDS011;27185;52.040;4.490;2022-10-31T04:20:44;7.50;;;5.37;;
41446;SDS011;27185;52.040;4.490;2022-10-31T04:23:34;8.40;;;6.28;;
41446;SDS011;27185;52.040;4.490;2022-10-31T04:26:21;8.13;;;6.10;;
41446;SDS011;27185;52.040;4.490;2022-10-31T04:29:07;9.68;;;5.80;;
41446;SDS011;27185;52.040;4.490;2022-10-31T04:31:52;8.65;;;5.63;;
41446;SDS011;27185;52.040;4.490;2022-10-31T04:34:38;8.95;;;6.38;;
41446;SDS011;27185;52.040;4.490;2022-10-31T04:37:24;11.40;;;6.65;;
41446;SDS011;27185;52.040;4.490;2022-10-31T04:40:10;10.55;;;6.10;;
41446;SDS011;27185;52.040;4.490;2022-10-31T04:42:56;9.65;;;6.63;;
41446;SDS011;27185;52.040;4.490;2022-10-31T04:45:42;10.15;;;5.68;;
41446;SDS011;27185;52.040;4.490;2022-10-31T04:48:27;9.70;;;6.75;;
41446;SDS011;27185;52.040;4.490;2022-10-31T04:51:13;8.32;;;6.47;;
41446;SDS011;27185;52.040;4.490;2022-10-31T04:53:59;8.35;;;5.68;;
41446;SDS011;27185;52.040;4.490;2022-10-31T04:56:45;8.70;;;6.18;;
41446;SDS011;27185;52.040;4.490;2022-10-31T04:59:30;8.73;;;6.28;;
41446;SDS011;27185;52.040;4.490;2022-10-31T05:02:16;11.02;;;7.15;;
41446;SDS011;27185;52.040;4.490;2022-10-31T05:05:02;10.93;;;7.47;;
41446;SDS011;27185;52.040;4.490;2022-10-31T05:07:51;9.07;;;7.75;;
41446;SDS011;27185;52.040;4.490;2022-10-31T05:10:37;9.82;;;7.00;;
41446;SDS011;27185;52.040;4.490;2022-10-31T05:13:23;10.50;;;7.25;;
41446;SDS011;27185;52.040;4.490;2022-10-31T05:16:09;10.00;;;7.03;;
41446;SDS011;27185;52.040;4.490;2022-10-31T05:18:54;13.27;;;7.40;;
41446;SDS011;27185;52.040;4.490;2022-10-31T05:21:40;11.88;;;8.32;;
41446;SDS011;27185;52.040;4.490;2022-10-31T05:24:26;15.23;;;8.38;;
41446;SDS011;27185;52.040;4.490;2022-10-31T05:27:11;10.55;;;7.65;;
41446;SDS011;27185;52.040;4.490;2022-10-31T05:29:57;13.10;;;8.00;;
41446;SDS011;27185;52.040;4.490;2022-10-31T05:32:43;11.90;;;8.27;;
41446;SDS011;27185;52.040;4.490;2022-10-31T05:35:31;12.60;;;8.43;;
41446;SDS011;27185;52.040;4.490;2022-10-31T05:38:17;13.23;;;9.02;;
41446;SDS011;27185;52.040;4.490;2022-10-31T05:41:03;10.88;;;8.27;;
41446;SDS011;27185;52.040;4.490;2022-10-31T05:43:48;14.02;;;9.38;;
41446;SDS011;27185;52.040;4.490;2022-10-31T05:46:34;13.90;;;8.45;;
41446;SDS011;27185;52.040;4.490;2022-10-31T05:49:20;12.25;;;7.93;;
41446;SDS011;27185;52.040;4.490;2022-10-31T05:52:05;13.00;;;8.35;;
41446;SDS011;27185;52.040;4.490;2022-10-31T05:54:51;11.75;;;8.88;;
41446;SDS011;27185;52.040;4.490;2022-10-31T05:57:37;13.57;;;9.57;;
41446;SDS011;27185;52.040;4.490;2022-10-31T06:00:23;14.98;;;9.90;;
41446;SDS011;27185;52.040;4.490;2022-10-31T06:03:09;14.27;;;10.02;;
41446;SDS011;27185;52.040;4.490;2022-10-31T06:05:58;15.38;;;9.32;;
41446;SDS011;27185;52.040;4.490;2022-10-31T06:08:43;11.90;;;9.25;;
41446;SDS011;27185;52.040;4.490;2022-10-31T06:11:29;17.80;;;10.65;;
41446;SDS011;27185;52.040;4.490;2022-10-31T06:14:14;12.32;;;9.18;;
41446;SDS011;27185;52.040;4.490;2022-10-31T06:17:00;14.10;;;9.65;;
41446;SDS011;27185;52.040;4.490;2022-10-31T06:19:46;14.00;;;9.32;;
41446;SDS011;27185;52.040;4.490;2022-10-31T06:22:32;13.30;;;9.65;;
41446;SDS011;27185;52.040;4.490;2022-10-31T06:25:18;12.32;;;8.80;;
41446;SDS011;27185;52.040;4.490;2022-10-31T06:28:04;12.88;;;8.80;;
41446;SDS011;27185;52.040;4.490;2022-10-31T06:30:50;12.48;;;9.00;;
41446;SDS011;27185;52.040;4.490;2022-10-31T06:33:36;12.68;;;8.80;;
41446;SDS011;27185;52.040;4.490;2022-10-31T06:36:21;14.30;;;9.32;;
41446;SDS011;27185;52.040;4.490;2022-10-31T06:39:07;13.90;;;9.07;;
41446;SDS011;27185;52.040;4.490;2022-10-31T06:41:52;11.27;;;8.23;;
41446;SDS011;27185;52.040;4.490;2022-10-31T06:44:38;11.73;;;8.93;;
41446;SDS011;27185;52.040;4.490;2022-10-31T06:47:24;12.65;;;8.80;;
41446;SDS011;27185;52.040;4.490;2022-10-31T06:50:09;14.02;;;9.43;;
41446;SDS011;27185;52.040;4.490;2022-10-31T06:52:56;13.02;;;8.77;;
41446;SDS011;27185;52.040;4.490;2022-10-31T06:55:43;16.15;;;9.30;;
41446;SDS011;27185;52.040;4.490;2022-10-31T06:58:29;12.15;;;9.60;;
41446;SDS011;27185;52.040;4.490;2022-10-31T07:01:15;17.40;;;10.73;;
41446;SDS011;27185;52.040;4.490;2022-10-31T07:04:00;16.33;;;9.80;;
41446;SDS011;27185;52.040;4.490;2022-10-31T07:06:46;14.05;;;9.82;;
41446;SDS011;27185;52.040;4.490;2022-10-31T07:09:32;14.55;;;9.68;;
41446;SDS011;27185;52.040;4.490;2022-10-31T07:12:17;14.48;;;10.27;;
41446;SDS011;27185;52.040;4.490;2022-10-31T07:15:03;15.65;;;10.77;;
41446;SDS011;27185;52.040;4.490;2022-10-31T07:17:49;15.63;;;10.30;;
41446;SDS011;27185;52.040;4.490;2022-10-31T07:20:35;15.30;;;11.25;;
41446;SDS011;27185;52.040;4.490;2022-10-31T07:23:21;18.83;;;11.18;;
41446;SDS011;27185;52.040;4.490;2022-10-31T07:26:07;17.63;;;11.20;;
41446;SDS011;27185;52.040;4.490;2022-10-31T07:28:55;19.50;;;10.50;;
41446;SDS011;27185;52.040;4.490;2022-10-31T07:31:40;17.45;;;10.65;;
41446;SDS011;27185;52.040;4.490;2022-10-31T07:34:26;15.18;;;9.65;;
41446;SDS011;27185;52.040;4.490;2022-10-31T07:37:12;19.80;;;10.75;;
41446;SDS011;27185;52.040;4.490;2022-10-31T07:39:57;18.55;;;9.95;;
41446;SDS011;27185;52.040;4.490;2022-10-31T07:42:43;15.13;;;9.63;;
41446;SDS011;27185;52.040;4.490;2022-10-31T07:45:33;17.00;;;9.50;;
41446;SDS011;27185;52.040;4.490;2022-10-31T07:48:19;13.88;;;9.85;;
41446;SDS011;27185;52.040;4.490;2022-10-31T07:51:05;14.70;;;9.02;;
41446;SDS011;27185;52.040;4.490;2022-10-31T07:53:51;18.02;;;10.80;;
41446;SDS011;27185;52.040;4.490;2022-10-31T07:56:37;17.75;;;11.15;;
41446;SDS011;27185;52.040;4.490;2022-10-31T07:59:23;20.02;;;10.45;;
41446;SDS011;27185;52.040;4.490;2022-10-31T08:02:08;17.33;;;11.02;;
41446;SDS011;27185;52.040;4.490;2022-10-31T08:04:56;22.48;;;11.43;;
41446;SDS011;27185;52.040;4.490;2022-10-31T08:07:46;26.75;;;11.95;;
41446;SDS011;27185;52.040;4.490;2022-10-31T08:10:32;19.95;;;10.50;;
41446;SDS011;27185;52.040;4.490;2022-10-31T08:13:18;23.70;;;12.52;;
41446;SDS011;27185;52.040;4.490;2022-10-31T08:16:04;30.50;;;11.20;;
41446;SDS011;27185;52.040;4.490;2022-10-31T08:18:52;31.15;;;13.65;;
41446;SDS011;27185;52.040;4.490;2022-10-31T08:21:40;36.83;;;13.77;;
41446;SDS011;27185;52.040;4.490;2022-10-31T08:24:26;36.50;;;14.43;;
41446;SDS011;27185;52.040;4.490;2022-10-31T08:27:11;48.00;;;14.43;;
41446;SDS011;27185;52.040;4.490;2022-10-31T08:29:57;56.13;;;13.93;;
41446;SDS011;27185;52.040;4.490;2022-10-31T08:32:43;46.42;;;15.95;;
41446;SDS011;27185;52.040;4.490;2022-10-31T08:35:29;59.15;;;14.30;;
41446;SDS011;27185;52.040;4.490;2022-10-31T08:38:15;33.72;;;14.10;;
41446;SDS011;27185;52.040;4.490;2022-10-31T08:41:00;48.22;;;15.52;;
41446;SDS011;27185;52.040;4.490;2022-10-31T08:43:46;31.05;;;14.52;;
41446;SDS011;27185;52.040;4.490;2022-10-31T08:46:32;31.30;;;14.95;;
41446;SDS011;27185;52.040;4.490;2022-10-31T08:49:17;23.77;;;14.23;;
41446;SDS011;27185;52.040;4.490;2022-10-31T08:52:03;24.88;;;15.00;;
41446;SDS011;27185;52.040;4.490;2022-10-31T08:54:49;22.55;;;14.27;;
41446;SDS011;27185;52.040;4.490;2022-10-31T08:57:34;24.08;;;14.23;;
41446;SDS011;27185;52.040;4.490;2022-10-31T09:00:20;24.25;;;14.63;;
41446;SDS011;27185;52.040;4.490;2022-10-31T09:03:08;22.15;;;16.15;;
41446;SDS011;27185;52.040;4.490;2022-10-31T09:05:57;18.15;;;13.32;;
41446;SDS011;27185;52.040;4.490;2022-10-31T09:11:30;16.48;;;11.38;;
41446;SDS011;27185;52.040;4.490;2022-10-31T09:14:16;20.52;;;13.88;;
41446;SDS011;27185;52.040;4.490;2022-10-31T09:17:01;21.63;;;14.55;;
41446;SDS011;27185;52.040;4.490;2022-10-31T09:19:47;20.98;;;14.38;;
41446;SDS011;27185;52.040;4.490;2022-10-31T09:22:32;21.20;;;15.13;;
41446;SDS011;27185;52.040;4.490;2022-10-31T09:25:18;20.73;;;14.50;;
41446;SDS011;27185;52.040;4.490;2022-10-31T09:28:04;22.88;;;15.07;;
41446;SDS011;27185;52.040;4.490;2022-10-31T09:30:52;20.42;;;13.73;;
41446;SDS011;27185;52.040;4.490;2022-10-31T09:33:38;18.92;;;12.70;;
41446;SDS011;27185;52.040;4.490;2022-10-31T09:36:24;20.17;;;14.13;;
41446;SDS011;27185;52.040;4.490;2022-10-31T09:39:10;28.42;;;13.68;;
41446;SDS011;27185;52.040;4.490;2022-10-31T09:42:04;19.13;;;12.90;;
41446;SDS011;27185;52.040;4.490;2022-10-31T09:51:33;16.20;;;12.23;;
41446;SDS011;27185;52.040;4.490;2022-10-31T09:57:34;25.13;;;13.13;;
41446;SDS011;27185;52.040;4.490;2022-10-31T10:00:21;21.17;;;13.38;;
41446;SDS011;27185;52.040;4.490;2022-10-31T10:03:20;16.55;;;12.65;;
41446;SDS011;27185;52.040;4.490;2022-10-31T10:06:21;18.90;;;12.82;;
41446;SDS011;27185;52.040;4.490;2022-10-31T10:09:14;20.75;;;12.85;;
41446;SDS011;27185;52.040;4.490;2022-10-31T10:12:13;20.85;;;12.77;;
41446;SDS011;27185;52.040;4.490;2022-10-31T10:33:40;17.38;;;12.38;;
41446;SDS011;27185;52.040;4.490;2022-10-31T10:39:21;20.75;;;13.60;;
41446;SDS011;27185;52.040;4.490;2022-10-31T10:42:28;21.17;;;13.20;;
41446;SDS011;27185;52.040;4.490;2022-10-31T10:45:32;21.17;;;11.98;;
41446;SDS011;27185;52.040;4.490;2022-10-31T10:51:46;21.40;;;12.20;;
41446;SDS011;27185;52.040;4.490;2022-10-31T10:58:18;16.15;;;10.82;;
41446;SDS011;27185;52.040;4.490;2022-10-31T11:01:10;17.95;;;12.50;;
41446;SDS011;27185;52.040;4.490;2022-10-31T11:03:57;20.33;;;13.07;;
41446;SDS011;27185;52.040;4.490;2022-10-31T11:06:43;22.23;;;13.65;;
41446;SDS011;27185;52.040;4.490;2022-10-31T11:09:29;18.90;;;12.48;;
41446;SDS011;27185;52.040;4.490;2022-10-31T11:12:22;19.23;;;12.60;;
41446;SDS011;27185;52.040;4.490;2022-10-31T11:15:18;17.75;;;11.10;;
41446;SDS011;27185;52.040;4.490;2022-10-31T11:18:12;15.18;;;11.07;;
41446;SDS011;27185;52.040;4.490;2022-10-31T11:21:05;16.40;;;11.73;;
41446;SDS011;27185;52.040;4.490;2022-10-31T11:30:12;16.80;;;10.77;;
41446;SDS011;27185;52.040;4.490;2022-10-31T11:32:59;17.90;;;10.55;;
41446;SDS011;27185;52.040;4.490;2022-10-31T11:35:44;18.83;;;11.10;;
41446;SDS011;27185;52.040;4.490;2022-10-31T11:38:35;14.07;;;10.83;;
41446;SDS011;27185;52.040;4.490;2022-10-31T11:41:30;18.48;;;11.70;;
41446;SDS011;27185;52.040;4.490;2022-10-31T11:44:20;18.67;;;11.23;;
41446;SDS011;27185;52.040;4.490;2022-10-31T11:47:10;15.15;;;10.63;;
41446;SDS011;27185;52.040;4.490;2022-10-31T11:50:09;19.70;;;10.77;;
41446;SDS011;27185;52.040;4.490;2022-10-31T11:53:03;16.92;;;11.50;;
41446;SDS011;27185;52.040;4.490;2022-10-31T11:55:59;17.17;;;12.15;;
41446;SDS011;27185;52.040;4.490;2022-10-31T11:59:01;21.27;;;12.38;;
41446;SDS011;27185;52.040;4.490;2022-10-31T12:01:49;18.27;;;11.60;;
41446;SDS011;27185;52.040;4.490;2022-10-31T12:04:41;18.98;;;13.35;;
41446;SDS011;27185;52.040;4.490;2022-10-31T12:07:31;18.05;;;12.00;;
41446;SDS011;27185;52.040;4.490;2022-10-31T12:10:17;21.48;;;12.38;;
41446;SDS011;27185;52.040;4.490;2022-10-31T12:13:21;16.55;;;11.40;;
41446;SDS011;27185;52.040;4.490;2022-10-31T12:16:21;17.70;;;12.27;;
41446;SDS011;27185;52.040;4.490;2022-10-31T12:19:39;23.33;;;12.93;;
41446;SDS011;27185;52.040;4.490;2022-10-31T12:22:43;22.30;;;14.50;;
41446;SDS011;27185;52.040;4.490;2022-10-31T12:26:17;21.58;;;13.70;;
41446;SDS011;27185;52.040;4.490;2022-10-31T12:29:29;21.00;;;13.55;;
41446;SDS011;27185;52.040;4.490;2022-10-31T12:32:21;17.17;;;12.32;;
41446;SDS011;27185;52.040;4.490;2022-10-31T12:41:28;20.48;;;13.25;;
41446;SDS011;27185;52.040;4.490;2022-10-31T12:44:59;23.92;;;13.55;;
41446;SDS011;27185;52.040;4.490;2022-10-31T12:53:49;18.52;;;13.98;;
41446;SDS011;27185;52.040;4.490;2022-10-31T13:00:13;24.48;;;14.50;;
41446;SDS011;27185;52.040;4.490;2022-10-31T13:06:09;24.65;;;14.10;;
41446;SDS011;27185;52.040;4.490;2022-10-31T13:09:05;25.30;;;16.52;;
41446;SDS011;27185;52.040;4.490;2022-10-31T13:11:56;21.13;;;13.45;;
41446;SDS011;27185;52.040;4.490;2022-10-31T13:14:50;25.35;;;15.52;;
41446;SDS011;27185;52.040;4.490;2022-10-31T13:17:41;22.40;;;15.18;;
41446;SDS011;27185;52.040;4.490;2022-10-31T13:20:32;28.92;;;15.77;;
41446;SDS011;27185;52.040;4.490;2022-10-31T13:23:26;27.98;;;16.60;;
41446;SDS011;27185;52.040;4.490;2022-10-31T13:26:15;29.27;;;18.27;;
41446;SDS011;27185;52.040;4.490;2022-10-31T13:32:10;30.58;;;18.65;;
41446;SDS011;27185;52.040;4.490;2022-10-31T13:34:56;30.65;;;17.52;;
41446;SDS011;27185;52.040;4.490;2022-10-31T13:37:46;31.60;;;18.80;;
41446;SDS011;27185;52.040;4.490;2022-10-31T13:44:15;28.10;;;18.27;;
41446;SDS011;27185;52.040;4.490;2022-10-31T13:47:28;32.38;;;19.80;;
41446;SDS011;27185;52.040;4.490;2022-10-31T13:53:19;35.40;;;20.42;;
41446;SDS011;27185;52.040;4.490;2022-10-31T13:56:22;30.52;;;17.92;;
41446;SDS011;27185;52.040;4.490;2022-10-31T14:01:58;30.15;;;20.17;;
41446;SDS011;27185;52.040;4.490;2022-10-31T14:04:50;31.10;;;20.75;;
41446;SDS011;27185;52.040;4.490;2022-10-31T14:07:41;37.45;;;21.02;;
41446;SDS011;27185;52.040;4.490;2022-10-31T14:10:29;36.55;;;21.17;;
41446;SDS011;27185;52.040;4.490;2022-10-31T14:13:29;33.13;;;20.27;;
41446;SDS011;27185;52.040;4.490;2022-10-31T14:16:34;30.75;;;18.67;;
41446;SDS011;27185;52.040;4.490;2022-10-31T14:19:28;27.88;;;19.80;;
41446;SDS011;27185;52.040;4.490;2022-10-31T14:22:20;39.92;;;21.88;;
41446;SDS011;27185;52.040;4.490;2022-10-31T14:28:22;29.60;;;19.25;;
41446;SDS011;27185;52.040;4.490;2022-10-31T14:31:27;39.75;;;21.77;;
41446;SDS011;27185;52.040;4.490;2022-10-31T14:34:33;34.50;;;20.40;;
41446;SDS011;27185;52.040;4.490;2022-10-31T14:43:21;32.50;;;20.90;;
41446;SDS011;27185;52.040;4.490;2022-10-31T14:46:17;41.85;;;22.60;;
41446;SDS011;27185;52.040;4.490;2022-10-31T14:52:35;34.08;;;21.90;;
41446;SDS011;27185;52.040;4.490;2022-10-31T14:55:22;33.00;;;20.65;;
41446;SDS011;27185;52.040;4.490;2022-10-31T14:58:09;44.97;;;22.23;;
41446;SDS011;27185;52.040;4.490;2022-10-31T15:01:00;37.20;;;22.42;;
41446;SDS011;27185;52.040;4.490;2022-10-31T15:03:46;35.42;;;23.40;;
41446;SDS011;27185;52.040;4.490;2022-10-31T15:06:37;42.90;;;22.85;;
41446;SDS011;27185;52.040;4.490;2022-10-31T15:09:36;37.92;;;23.08;;
41446;SDS011;27185;52.040;4.490;2022-10-31T15:12:28;37.45;;;22.60;;
41446;SDS011;27185;52.040;4.490;2022-10-31T15:15:23;38.20;;;22.77;;
41446;SDS011;27185;52.040;4.490;2022-10-31T15:18:17;41.08;;;22.98;;
41446;SDS011;27185;52.040;4.490;2022-10-31T15:21:06;36.10;;;22.13;;
41446;SDS011;27185;52.040;4.490;2022-10-31T15:23:52;34.78;;;21.48;;
41446;SDS011;27185;52.040;4.490;2022-10-31T15:26:40;33.97;;;21.13;;
41446;SDS011;27185;52.040;4.490;2022-10-31T15:29:29;39.25;;;22.92;;
41446;SDS011;27185;52.040;4.490;2022-10-31T15:32:19;37.95;;;22.25;;
41446;SDS011;27185;52.040;4.490;2022-10-31T15:35:08;34.30;;;20.63;;
41446;SDS011;27185;52.040;4.490;2022-10-31T15:37:55;38.13;;;22.92;;
41446;SDS011;27185;52.040;4.490;2022-10-31T15:40:50;33.40;;;21.40;;
41446;SDS011;27185;52.040;4.490;2022-10-31T15:43:39;38.63;;;21.43;;
41446;SDS011;27185;52.040;4.490;2022-10-31T15:46:29;38.40;;;22.35;;
41446;SDS011;27185;52.040;4.490;2022-10-31T15:49:26;36.75;;;20.65;;
41446;SDS011;27185;52.040;4.490;2022-10-31T15:52:29;32.75;;;21.30;;
41446;SDS011;27185;52.040;4.490;2022-10-31T15:55:31;33.15;;;21.05;;
41446;SDS011;27185;52.040;4.490;2022-10-31T15:58:21;41.05;;;23.23;;
41446;SDS011;27185;52.040;4.490;2022-10-31T16:01:19;34.10;;;20.98;;
41446;SDS011;27185;52.040;4.490;2022-10-31T16:06:59;43.88;;;24.95;;
41446;SDS011;27185;52.040;4.490;2022-10-31T16:09:59;37.65;;;23.08;;
41446;SDS011;27185;52.040;4.490;2022-10-31T16:12:45;36.38;;;22.08;;
41446;SDS011;27185;52.040;4.490;2022-10-31T16:15:31;38.90;;;22.23;;
41446;SDS011;27185;52.040;4.490;2022-10-31T16:18:18;39.30;;;23.00;;
41446;SDS011;27185;52.040;4.490;2022-10-31T16:21:04;42.35;;;20.55;;
41446;SDS011;27185;52.040;4.490;2022-10-31T16:23:51;39.10;;;22.05;;
41446;SDS011;27185;52.040;4.490;2022-10-31T16:26:41;35.78;;;21.25;;
41446;SDS011;27185;52.040;4.490;2022-10-31T16:32:50;38.72;;;23.60;;
41446;SDS011;27185;52.040;4.490;2022-10-31T16:35:37;34.53;;;19.48;;
41446;SDS011;27185;52.040;4.490;2022-10-31T16:38:24;32.78;;;20.52;;
41446;SDS011;27185;52.040;4.490;2022-10-31T16:41:09;34.03;;;18.95;;
41446;SDS011;27185;52.040;4.490;2022-10-31T16:43:57;33.50;;;20.08;;
41446;SDS011;27185;52.040;4.490;2022-10-31T16:46:46;31.27;;;19.30;;
41446;SDS011;27185;52.040;4.490;2022-10-31T16:49:32;31.90;;;19.13;;
41446;SDS011;27185;52.040;4.490;2022-10-31T16:52:18;27.15;;;17.40;;
41446;SDS011;27185;52.040;4.490;2022-10-31T16:55:04;36.08;;;20.13;;
41446;SDS011;27185;52.040;4.490;2022-10-31T16:57:50;37.88;;;20.50;;
41446;SDS011;27185;52.040;4.490;2022-10-31T17:00:38;33.90;;;19.65;;
41446;SDS011;27185;52.040;4.490;2022-10-31T17:03:23;37.58;;;19.60;;
41446;SDS011;27185;52.040;4.490;2022-10-31T17:06:12;34.90;;;18.75;;
41446;SDS011;27185;52.040;4.490;2022-10-31T17:08:58;30.08;;;18.23;;
41446;SDS011;27185;52.040;4.490;2022-10-31T17:11:45;35.30;;;19.40;;
41446;SDS011;27185;52.040;4.490;2022-10-31T17:14:33;33.75;;;18.98;;
41446;SDS011;27185;52.040;4.490;2022-10-31T17:17:19;35.92;;;17.55;;
41446;SDS011;27185;52.040;4.490;2022-10-31T17:23:11;31.17;;;16.10;;
41446;SDS011;27185;52.040;4.490;2022-10-31T17:25:58;28.33;;;16.25;;
41446;SDS011;27185;52.040;4.490;2022-10-31T17:28:44;28.17;;;16.52;;
41446;SDS011;27185;52.040;4.490;2022-10-31T17:31:30;34.20;;;16.50;;
41446;SDS011;27185;52.040;4.490;2022-10-31T17:34:17;26.42;;;16.92;;
41446;SDS011;27185;52.040;4.490;2022-10-31T17:37:03;30.23;;;17.10;;
41446;SDS011;27185;52.040;4.490;2022-10-31T17:39:48;27.02;;;15.82;;
41446;SDS011;27185;52.040;4.490;2022-10-31T17:42:34;27.40;;;16.35;;
41446;SDS011;27185;52.040;4.490;2022-10-31T17:45:20;30.70;;;16.67;;
41446;SDS011;27185;52.040;4.490;2022-10-31T17:48:08;28.93;;;16.30;;
41446;SDS011;27185;52.040;4.490;2022-10-31T17:50:58;30.40;;;16.15;;
41446;SDS011;27185;52.040;4.490;2022-10-31T17:53:45;30.15;;;15.63;;
41446;SDS011;27185;52.040;4.490;2022-10-31T17:56:30;27.45;;;15.57;;
41446;SDS011;27185;52.040;4.490;2022-10-31T17:59:16;25.45;;;16.73;;
41446;SDS011;27185;52.040;4.490;2022-10-31T18:02:02;26.25;;;14.98;;
41446;SDS011;27185;52.040;4.490;2022-10-31T18:04:52;30.58;;;16.30;;
41446;SDS011;27185;52.040;4.490;2022-10-31T18:07:38;27.98;;;16.83;;
41446;SDS011;27185;52.040;4.490;2022-10-31T18:10:24;25.02;;;14.90;;
41446;SDS011;27185;52.040;4.490;2022-10-31T18:13:13;31.92;;;18.60;;
41446;SDS011;27185;52.040;4.490;2022-10-31T18:15:58;35.28;;;19.20;;
41446;SDS011;27185;52.040;4.490;2022-10-31T18:18:48;34.13;;;18.25;;
41446;SDS011;27185;52.040;4.490;2022-10-31T18:21:35;35.00;;;19.15;;
41446;SDS011;27185;52.040;4.490;2022-10-31T18:24:21;27.83;;;17.13;;
41446;SDS011;27185;52.040;4.490;2022-10-31T18:27:06;27.20;;;15.93;;
41446;SDS011;27185;52.040;4.490;2022-10-31T18:29:52;37.70;;;18.02;;
41446;SDS011;27185;52.040;4.490;2022-10-31T18:32:38;30.77;;;17.80;;
41446;SDS011;27185;52.040;4.490;2022-10-31T18:35:24;32.33;;;18.73;;
41446;SDS011;27185;52.040;4.490;2022-10-31T18:38:09;30.60;;;16.92;;
41446;SDS011;27185;52.040;4.490;2022-10-31T18:40:55;25.40;;;16.05;;
41446;SDS011;27185;52.040;4.490;2022-10-31T18:43:41;30.40;;;16.95;;
41446;SDS011;27185;52.040;4.490;2022-10-31T18:46:27;25.63;;;14.63;;